Flight Track Log - Related Links

Times and Time Zones

All times are in EDT time to prevent confusion due to time zone crossing. See the THY322 flight status page for this flight to view local times or setup timezone preferences in your user account.

Time Position Orientation Groundspeed Altitude Reporting Facility
EDT Latitude Longitude Course Direction KTS MPH feet Rate Location/Type
02:58PM 41.0051 29.9932 88° East  Level Estimated
02:59PM 41.0082 30.1607 89° East  Level Estimated
03:00PM 41.0110 30.3282 89° East  Level Estimated
03:01PM 41.0136 30.4957 89° East  Level Estimated
03:02PM 41.0159 30.6633 89° East  Level Estimated
03:03PM 41.0181 30.8308 89° East  Level Estimated
03:04PM 41.0199 30.9984 89° East  Level Estimated
03:05PM 41.0215 31.1660 89° East  Level Estimated
03:06PM 41.0229 31.3336 89° East  Level Estimated
03:07PM 41.0240 31.5012 89° East  Level Estimated
03:08PM 41.0249 31.6688 90° East  Level Estimated
03:09PM 41.0255 31.8364 90° East  Level Estimated
03:10PM 41.0259 32.0040 90° East  Level Estimated
03:11PM 41.0261 32.1716 90° East  Level Estimated
03:12PM 41.0260 32.3392 90° East  Level Estimated
03:13PM 41.0257 32.5068 90° East  Level Estimated
03:14PM 41.0251 32.6744 90° East  Level Estimated
03:15PM 41.0243 32.8420 90° East  Level Estimated
03:16PM 41.0232 33.0096 90° East  Level Estimated
03:17PM 41.0219 33.1772 91° East  Level Estimated
03:18PM 41.0204 33.3448 91° East  Level Estimated
03:19PM 41.0186 33.5123 91° East  Level Estimated
03:20PM 41.0165 33.6799 91° East  Level Estimated
03:21PM 41.0143 33.8475 91° East  Level Estimated
03:22PM 41.0117 34.0150 91° East  Level Estimated
03:23PM 41.0090 34.1825 91° East  Level Estimated
03:24PM 41.0060 34.3500 91° East  Level Estimated
03:25PM 41.0028 34.5175 91° East  Level Estimated
03:26PM 40.9993 34.6850 92° East  Level Estimated
03:27PM 40.9955 34.8525 92° East  Level Estimated
03:28PM 40.9916 35.0199 92° East  Level Estimated
03:29PM 40.9874 35.1873 92° East  Level Estimated
03:30PM 40.9829 35.3547 92° East  Level Estimated
03:31PM 40.9782 35.5221 92° East  Level Estimated
03:32PM 40.9733 35.6895 92° East  Level Estimated
03:33PM 40.9681 35.8568 92° East  Level Estimated
03:34PM 40.9627 36.0241 92° East  Level Estimated
03:35PM 40.9570 36.1914 93° East  Level Estimated
03:36PM 40.9511 36.3586 93° East  Level Estimated
03:37PM 40.9449 36.5258 93° East  Level Estimated
03:38PM 40.9385 36.6930 93° East  Level Estimated
03:39PM 40.9319 36.8601 93° East  Level Estimated
03:40PM 40.9250 37.0272 93° East  Level Estimated
03:41PM 40.9179 37.1943 93° East  Level Estimated
03:42PM 40.9106 37.3614 93° East  Level Estimated
03:43PM 40.9030 37.5284 93° East  Level Estimated
03:44PM 40.8951 37.6953 93° East  Level Estimated
03:45PM 40.8871 37.8623 94° East  Level Estimated
03:46PM 40.8787 38.0291 94° East  Level Estimated
03:47PM 40.8702 38.1960 94° East  Level Estimated
03:48PM 40.8614 38.3628 94° East  Level Estimated
03:49PM 40.8524 38.5295 94° East  Level Estimated
03:50PM 40.8431 38.6962 94° East  Level Estimated
03:51PM 40.8336 38.8629 94° East  Level Estimated
03:52PM 40.8238 39.0295 94° East  Level Estimated
03:53PM 40.8138 39.1960 94° East  Level Estimated
03:54PM 40.8036 39.3626 95° East  Level Estimated
03:55PM 40.7931 39.5290 95° East  Level Estimated
03:56PM 40.7824 39.6954 95° East  Level Estimated
03:57PM 40.7714 39.8618 95° East  Level Estimated
03:58PM 40.7602 40.0281 95° East  Level Estimated
03:59PM 40.7488 40.1943 95° East  Level Estimated
04:00PM 40.7371 40.3605 95° East  Level Estimated
04:01PM 40.7252 40.5266 95° East  Level Estimated
04:02PM 40.7131 40.6927 95° East  Level Estimated
04:03PM 40.7007 40.8587 96° East  Level Estimated
04:04PM 40.6881 41.0246 96° East  Level Estimated
04:05PM 40.6752 41.1905 96° East  Level Estimated
04:06PM 40.6621 41.3563 96° East  Level Estimated
04:07PM 40.6488 41.5220 96° East  Level Estimated
04:08PM 40.6352 41.6877 96° East  Level Estimated
04:09PM 40.6214 41.8533 96° East  Level Estimated
04:10PM 40.6073 42.0188 96° East  Level Estimated
04:11PM 40.5931 42.1843 96° East  Level Estimated
04:12PM 40.5785 42.3497 97° East  Level Estimated
04:13PM 40.5638 42.5150 97° East  Level Estimated
04:14PM 40.5488 42.6803 97° East  Level Estimated
04:15PM 40.5336 42.8455 97° East  Level Estimated
04:16PM 40.5181 43.0106 97° East  Level Estimated
04:17PM 40.5024 43.1756 97° East  Level Estimated
04:18PM 40.4865 43.3405 97° East  Level Estimated
04:19PM 40.4703 43.5054 97° East  Level Estimated
04:20PM 40.4539 43.6702 97° East  Level Estimated
04:21PM 40.4373 43.8349 98° East  Level Estimated
04:22PM 40.4205 43.9995 98° East  Level Estimated
04:23PM 40.4034 44.1641 98° East  Level Estimated
04:24PM 40.3860 44.3285 98° East  Level Estimated
04:25PM 40.3685 44.4929 98° East  Level Estimated
04:26PM 40.3507 44.6572 98° East  Level Estimated
04:27PM 40.3326 44.8214 98° East  Level Estimated
04:28PM 40.3144 44.9855 98° East  Level Estimated
04:29PM 40.2959 45.1495 98° East  Level Estimated
04:30PM 40.2772 45.3135 98° East  Level Estimated
04:31PM 40.2582 45.4773 99° East  Level Estimated
04:32PM 40.2390 45.6411 99° East  Level Estimated
04:33PM 40.2196 45.8047 99° East  Level Estimated
04:34PM 40.2000 45.9683 99° East  Level Estimated
04:35PM 40.1801 46.1317 99° East  Level Estimated
04:36PM 40.1600 46.2951 99° East  Level Estimated
04:37PM 40.1396 46.4584 99° East  Level Estimated
04:38PM 40.1191 46.6216 99° East  Level Estimated
04:39PM 40.0983 46.7846 99° East  Level Estimated
04:40PM 40.0773 46.9476 100° East  Level Estimated
04:41PM 40.0560 47.1105 100° East  Level Estimated
04:42PM 40.0345 47.2733 100° East  Level Estimated
04:43PM 40.0128 47.4359 100° East  Level Estimated
04:44PM 39.9909 47.5985 100° East  Level Estimated
04:45PM 39.9687 47.7609 100° East  Level Estimated
04:46PM 39.9464 47.9233 100° East  Level Estimated
04:47PM 39.9237 48.0855 100° East  Level Estimated
04:48PM 39.9009 48.2477 100° East  Level Estimated
04:49PM 39.8778 48.4097 100° East  Level Estimated
04:50PM 39.8545 48.5716 101° East  Level Estimated
04:51PM 39.8310 48.7335 101° East  Level Estimated
04:52PM 39.8073 48.8951 101° East  Level Estimated
04:53PM 39.7833 49.0567 101° East  Level Estimated
04:54PM 39.7591 49.2182 101° East  Level Estimated
04:55PM 39.7347 49.3796 101° East  Level Estimated
04:56PM 39.7101 49.5408 101° East  Level Estimated
04:57PM 39.6852 49.7019 101° East  Level Estimated
04:58PM 39.6602 49.8630 101° East  Level Estimated
04:59PM 39.6348 50.0238 101° East  Level Estimated
05:00PM 39.6093 50.1846 102° East  Level Estimated
05:01PM 39.5836 50.3453 102° East  Level Estimated
05:02PM 39.5576 50.5058 102° East  Level Estimated
05:03PM 39.5314 50.6662 102° East  Level Estimated
05:04PM 39.5050 50.8265 102° East  Level Estimated
05:05PM 39.4784 50.9867 102° East  Level Estimated
05:06PM 39.4515 51.1468 102° East  Level Estimated
05:07PM 39.4245 51.3067 102° East  Level Estimated
05:08PM 39.3972 51.4665 102° East  Level Estimated
05:09PM 39.3697 51.6262 103° East  Level Estimated
05:10PM 39.3420 51.7857 103° East  Level Estimated
05:11PM 39.3140 51.9451 103° East  Level Estimated
05:12PM 39.2859 52.1045 103° East  Level Estimated
05:13PM 39.2575 52.2636 103° East  Level Estimated
05:14PM 39.2289 52.4226 103° East  Level Estimated
05:15PM 39.2001 52.5816 103° East  Level Estimated
05:16PM 39.1711 52.7403 103° East  Level Estimated
05:17PM 39.1418 52.8990 103° East  Level Estimated
05:18PM 39.1124 53.0575 103° East  Level Estimated
05:19PM 39.0827 53.2159 104° East  Level Estimated
05:20PM 39.0528 53.3741 104° East  Level Estimated
05:21PM 39.0228 53.5322 104° East  Level Estimated
05:22PM 38.9925 53.6902 104° East  Level Estimated
05:23PM 38.9619 53.8481 104° East  Level Estimated
05:24PM 38.9312 54.0058 104° East  Level Estimated
05:25PM 38.9002 54.1633 104° East  Level Estimated
05:26PM 38.8691 54.3208 104° East  Level Estimated
05:27PM 38.8377 54.4781 104° East  Level Estimated
05:28PM 38.8061 54.6352 104° East  Level Estimated
05:29PM 38.7744 54.7922 105° East  Level Estimated
05:30PM 38.7424 54.9491 105° East  Level Estimated
05:31PM 38.7102 55.1058 105° East  Level Estimated
05:32PM 38.6777 55.2624 105° East  Level Estimated
05:33PM 38.6451 55.4189 105° East  Level Estimated
05:34PM 38.6123 55.5752 105° East  Level Estimated
05:35PM 38.5792 55.7313 105° East  Level Estimated
05:36PM 38.5460 55.8874 105° East  Level Estimated
05:37PM 38.5125 56.0432 105° East  Level Estimated
05:38PM 38.4789 56.1990 105° East  Level Estimated
05:39PM 38.4450 56.3545 105° East  Level Estimated
05:40PM 38.4109 56.5100 106° East  Level Estimated
05:41PM 38.3767 56.6653 106° East  Level Estimated
05:42PM 38.3422 56.8204 106° East  Level Estimated
05:43PM 38.3075 56.9754 106° East  Level Estimated
05:44PM 38.2726 57.1303 106° East  Level Estimated
05:45PM 38.2375 57.2850 106° East  Level Estimated
05:46PM 38.2022 57.4395 106° East  Level Estimated
05:47PM 38.1667 57.5939 106° East  Level Estimated
05:48PM 38.1310 57.7481 106° East  Level Estimated
05:49PM 38.0951 57.9022 106° East  Level Estimated
05:50PM 38.0590 58.0562 107° East  Level Estimated
05:51PM 38.0227 58.2100 107° East  Level Estimated
05:52PM 37.9868 58.3610 107° East  Level Estimated
05:53PM 37.9868 58.3610 North  Level Estimated
05:54PM 37.9868 58.3610 North  Level Estimated
05:55PM 37.9868 58.3610 North  Level Estimated
05:56PM 37.9868 58.3610 North  Level Estimated
05:57PM 37.9868 58.3610 North  Level Estimated
05:58PM 37.9868 58.3610 North  Level Estimated
05:59PM 37.9868 58.3610 North  Level Estimated
06:00PM 37.9868 58.3610 North  Level Estimated
06:01PM 37.9868 58.3610 North  Level Estimated
06:02PM 37.9868 58.3610 North  Level Estimated
06:03PM 37.9868 58.3610 North  Level Estimated
06:04PM 37.9868 58.3610 North  Level Estimated
06:05PM 37.9868 58.3610 North  Level Estimated
06:06PM 37.9868 58.3610 North  Level Estimated
06:07PM 37.9868 58.3610 North  Level Estimated
06:08PM 37.9868 58.3610 North  Level Estimated

Login

Don't have an account? Register now (free) for customized features, flight alerts, and more!